createdAt,value
2022-08-29T00:00:30.588Z,101462.28
2022-08-29T00:03:00.095Z,101465.84
2022-08-29T00:05:29.754Z,101463.81
2022-08-29T00:07:57.263Z,101462.56
2022-08-29T00:10:23.900Z,101458.91
2022-08-29T00:12:50.476Z,101458.84
2022-08-29T00:15:18.167Z,101456.00
2022-08-29T00:17:45.189Z,101460.38
2022-08-29T00:20:15.537Z,101467.59
2022-08-29T00:22:42.484Z,101461.50
2022-08-29T00:25:11.089Z,101468.75
2022-08-29T00:27:37.769Z,101466.28
2022-08-29T00:30:06.899Z,101476.72
2022-08-29T00:32:36.481Z,101469.41
2022-08-29T00:35:06.880Z,101475.72
2022-08-29T00:37:33.441Z,101472.03
2022-08-29T00:40:00.061Z,101478.78
2022-08-29T00:42:27.970Z,101467.47
2022-08-29T00:44:54.811Z,101473.84
2022-08-29T00:47:25.911Z,101471.78
2022-08-29T00:49:55.712Z,101467.34
2022-08-29T00:52:30.712Z,101466.09
2022-08-29T00:54:57.352Z,101464.91
2022-08-29T00:57:27.588Z,101471.72
2022-08-29T00:59:54.278Z,101472.53
2022-08-29T01:02:20.829Z,101469.28
2022-08-29T01:04:47.840Z,101471.28
2022-08-29T01:07:14.723Z,101461.56
2022-08-29T01:09:43.281Z,101466.78
2022-08-29T01:12:16.222Z,101466.41
2022-08-29T01:14:54.111Z,101468.03
2022-08-29T01:17:33.702Z,101468.41
2022-08-29T01:20:10.396Z,101470.41
2022-08-29T01:23:02.998Z,101464.69
2022-08-29T01:25:34.600Z,101470.34
2022-08-29T01:28:07.920Z,101474.34
2022-08-29T01:30:34.661Z,101469.91
2022-08-29T01:33:01.788Z,101470.28
2022-08-29T01:35:28.857Z,101475.13
2022-08-29T01:37:55.750Z,101469.84
2022-08-29T01:42:57.571Z,101473.78
2022-08-29T01:45:24.187Z,101467.25
2022-08-29T01:47:50.703Z,101474.38
2022-08-29T01:50:17.365Z,101476.31
2022-08-29T01:52:43.966Z,101478.25
2022-08-29T01:55:11.131Z,101481.06
2022-08-29T01:57:39.558Z,101482.63
2022-08-29T02:00:08.502Z,101483.81
2022-08-29T02:02:35.264Z,101486.19
2022-08-29T02:05:03.573Z,101486.94
2022-08-29T02:07:30.054Z,101488.94
2022-08-29T02:09:56.637Z,101490.50
2022-08-29T02:12:23.158Z,101485.25
2022-08-29T02:14:50.825Z,101486.44
2022-08-29T02:17:17.651Z,101485.97
2022-08-29T02:19:44.171Z,101479.91
2022-08-29T02:22:10.997Z,101481.47
2022-08-29T02:24:37.980Z,101479.28
2022-08-29T02:27:04.524Z,101484.91
2022-08-29T02:29:37.620Z,101490.84
2022-08-29T02:32:07.015Z,101486.31
2022-08-29T02:34:33.841Z,101485.88
2022-08-29T02:37:01.384Z,101486.25
2022-08-29T02:39:27.853Z,101493.41
2022-08-29T02:41:54.407Z,101494.97
2022-08-29T02:44:20.985Z,101491.72
2022-08-29T02:46:48.717Z,101493.66
2022-08-29T02:49:15.833Z,101491.56
2022-08-29T02:51:42.585Z,101503.09
2022-08-29T02:54:09.520Z,101499.75
2022-08-29T02:56:36.731Z,101493.69
2022-08-29T02:59:03.498Z,101500.06
2022-08-29T03:01:31.394Z,101495.97
2022-08-29T03:03:58.222Z,101488.28
2022-08-29T03:06:24.769Z,101493.34
2022-08-29T03:08:51.597Z,101499.72
2022-08-29T03:11:21.212Z,101501.25
2022-08-29T03:13:47.718Z,101497.63
2022-08-29T03:16:14.558Z,101490.41
2022-08-29T03:18:41.461Z,101494.38
2022-08-29T03:21:20.347Z,101492.69
2022-08-29T03:23:48.600Z,101491.50
2022-08-29T03:26:15.628Z,101495.13
2022-08-29T03:28:42.524Z,101497.09
2022-08-29T03:31:09.601Z,101495.91
2022-08-29T03:33:36.503Z,101488.31
2022-08-29T03:36:03.474Z,101495.56
2022-08-29T03:38:35.727Z,101495.56
2022-08-29T03:41:02.238Z,101488.78
2022-08-29T03:43:28.722Z,101478.72
2022-08-29T03:45:55.236Z,101492.38
2022-08-29T03:48:21.780Z,101486.69
2022-08-29T03:50:49.201Z,101495.13
2022-08-29T03:53:18.259Z,101492.31
2022-08-29T03:55:46.629Z,101493.88
2022-08-29T03:58:13.317Z,101482.97
2022-08-29T04:00:39.870Z,101497.03
2022-08-29T04:03:06.521Z,101493.78
2022-08-29T04:05:33.448Z,101484.88
2022-08-29T04:08:00.232Z,101483.72
2022-08-29T04:10:30.366Z,101482.44
2022-08-29T04:12:57.911Z,101485.25
2022-08-29T04:15:26.356Z,101490.06
2022-08-29T04:17:55.319Z,101495.69
2022-08-29T04:20:25.877Z,101491.63
2022-08-29T04:22:54.373Z,101486.34
2022-08-29T04:25:21.962Z,101489.53
2022-08-29T04:27:49.497Z,101495.53
2022-08-29T04:30:18.853Z,101489.44
2022-08-29T04:32:46.022Z,101493.44
2022-08-29T04:35:13.950Z,101494.59
2022-08-29T04:37:41.394Z,101494.94
2022-08-29T04:40:10.408Z,101502.19
2022-08-29T04:42:37.971Z,101495.78
2022-08-29T04:45:06.902Z,101504.19
2022-08-29T04:47:36.522Z,101502.53
2022-08-29T04:50:04.126Z,101497.41
2022-08-29T04:52:31.073Z,101491.78
2022-08-29T04:54:57.660Z,101489.78
2022-08-29T04:57:24.808Z,101496.25
2022-08-29T04:59:56.215Z,101503.81
2022-08-29T05:02:23.963Z,101512.72
2022-08-29T05:04:52.828Z,101507.81
2022-08-29T05:07:21.016Z,101507.00
2022-08-29T05:09:57.638Z,101513.44
2022-08-29T05:12:26.053Z,101509.91
2022-08-29T05:14:53.786Z,101520.81
2022-08-29T05:17:20.798Z,101520.88
2022-08-29T05:19:47.950Z,101510.09
2022-08-29T05:22:15.436Z,101519.44
2022-08-29T05:24:42.320Z,101510.25
2022-08-29T05:27:11.592Z,101515.97
2022-08-29T05:29:40.227Z,101515.69
2022-08-29T05:32:10.998Z,101515.50
2022-08-29T05:34:38.808Z,101522.06
2022-08-29T05:37:08.650Z,101529.78
2022-08-29T05:39:36.760Z,101527.06
2022-08-29T05:42:04.919Z,101519.88
2022-08-29T05:44:35.304Z,101522.78
2022-08-29T05:47:08.408Z,101524.91
2022-08-29T05:49:36.837Z,101524.19
2022-08-29T05:52:04.114Z,101529.91
2022-08-29T05:54:33.026Z,101524.00
2022-08-29T05:56:59.683Z,101524.94
2022-08-29T05:59:26.323Z,101533.84
2022-08-29T06:01:52.861Z,101535.91
2022-08-29T06:04:19.481Z,101531.56
2022-08-29T06:06:46.049Z,101533.63
2022-08-29T06:09:13.311Z,101526.09
2022-08-29T06:11:39.925Z,101539.88
2022-08-29T06:14:06.514Z,101527.50
2022-08-29T06:16:33.663Z,101542.09
2022-08-29T06:19:01.228Z,101538.63
2022-08-29T06:21:27.794Z,101539.94
2022-08-29T06:23:54.928Z,101537.63
2022-08-29T06:26:21.475Z,101537.78
2022-08-29T06:28:48.435Z,101533.47
2022-08-29T06:31:20.870Z,101535.16
2022-08-29T06:33:54.288Z,101532.84
2022-08-29T06:36:21.090Z,101534.53
2022-08-29T06:38:48.099Z,101537.88
2022-08-29T06:41:17.003Z,101534.72
2022-08-29T06:43:43.957Z,101543.31
2022-08-29T06:46:24.410Z,101548.69
2022-08-29T06:48:51.572Z,101544.41
2022-08-29T06:51:18.210Z,101559.06
2022-08-29T06:53:45.022Z,101545.84
2022-08-29T06:56:11.986Z,101557.25
2022-08-29T06:58:38.897Z,101553.34
2022-08-29T07:01:10.581Z,101559.09
2022-08-29T07:03:38.241Z,101559.28
2022-08-29T07:06:05.506Z,101564.28
2022-08-29T07:08:33.745Z,101559.19
2022-08-29T07:11:01.014Z,101546.44
2022-08-29T07:13:27.532Z,101553.03
2022-08-29T07:15:54.092Z,101552.75
2022-08-29T07:18:21.264Z,101553.28
2022-08-29T07:20:47.799Z,101556.25
2022-08-29T07:23:14.507Z,101562.03
2022-08-29T07:25:41.183Z,101559.31
2022-08-29T07:28:13.365Z,101567.91
2022-08-29T07:30:42.003Z,101562.03
2022-08-29T07:33:08.644Z,101561.38
2022-08-29T07:35:35.127Z,101555.44
2022-08-29T07:38:01.819Z,101562.03
2022-08-29T07:40:28.715Z,101558.06
2022-08-29T07:42:55.350Z,101559.41
2022-08-29T07:45:21.882Z,101556.75
2022-08-29T07:47:48.365Z,101563.44
2022-08-29T07:50:15.247Z,101549.06
2022-08-29T07:52:41.714Z,101551.66
2022-08-29T07:55:08.865Z,101551.38
2022-08-29T07:57:39.659Z,101550.59
2022-08-29T08:00:11.954Z,101559.06
2022-08-29T08:02:38.660Z,101556.94
2022-08-29T08:05:06.799Z,101562.50
2022-08-29T08:07:35.045Z,101567.53
2022-08-29T08:10:03.086Z,101570.09
2022-08-29T08:12:29.945Z,101576.69
2022-08-29T08:14:57.171Z,101569.44
2022-08-29T08:17:24.104Z,101572.09
2022-08-29T08:19:50.649Z,101576.03
2022-08-29T08:22:17.308Z,101571.97
2022-08-29T08:24:43.847Z,101568.03
2022-08-29T08:27:10.338Z,101570.31
2022-08-29T08:29:36.961Z,101570.94
2022-08-29T08:32:03.868Z,101572.75
2022-08-29T08:34:30.585Z,101574.13
2022-08-29T08:36:57.115Z,101576.28
2022-08-29T08:39:23.624Z,101576.34
2022-08-29T08:41:53.128Z,101567.09
2022-08-29T08:44:22.731Z,101575.25
2022-08-29T08:46:54.781Z,101578.13
2022-08-29T08:49:33.196Z,101570.84
2022-08-29T08:52:02.256Z,101571.66
2022-08-29T08:54:34.839Z,101562.72
2022-08-29T08:57:07.998Z,101565.13
2022-08-29T08:59:44.437Z,101559.84
2022-08-29T09:02:34.834Z,101565.91
2022-08-29T09:05:19.630Z,101564.66
2022-08-29T09:08:03.083Z,101565.41
2022-08-29T09:10:43.581Z,101564.97
2022-08-29T09:13:32.421Z,101561.66
2022-08-29T09:16:05.216Z,101555.13
2022-08-29T09:18:39.274Z,101564.03
2022-08-29T09:21:39.036Z,101553.00
2022-08-29T09:23:59.946Z,101565.19
2022-08-29T09:26:29.315Z,101561.53
2022-08-29T09:28:55.938Z,101567.19
2022-08-29T09:31:28.657Z,101560.72
2022-08-29T09:33:58.901Z,101560.72
2022-08-29T09:36:42.796Z,101565.59
2022-08-29T09:39:29.145Z,101564.72
2022-08-29T09:41:58.920Z,101559.78
2022-08-29T09:44:31.612Z,101558.94
2022-08-29T09:47:04.218Z,101552.00
2022-08-29T09:49:30.808Z,101548.34
2022-08-29T09:52:10.060Z,101556.97
2022-08-29T09:54:36.628Z,101554.91
2022-08-29T09:57:18.643Z,101560.25
2022-08-29T10:00:16.065Z,101555.75
2022-08-29T10:02:43.849Z,101561.41
2022-08-29T10:05:36.235Z,101556.88
2022-08-29T10:08:06.052Z,101559.28
2022-08-29T10:10:36.494Z,101546.28
2022-08-29T10:13:22.283Z,101547.47
2022-08-29T10:15:57.568Z,101547.41
2022-08-29T10:18:42.920Z,101548.22
2022-08-29T10:21:26.696Z,101546.09
2022-08-29T10:24:19.486Z,101546.81
2022-08-29T10:27:17.023Z,101545.50
2022-08-29T10:30:14.201Z,101544.56
2022-08-29T10:33:19.629Z,101545.72
2022-08-29T10:36:01.119Z,101542.81
2022-08-29T10:39:06.140Z,101547.38
2022-08-29T10:41:39.225Z,101552.28
2022-08-29T10:44:08.646Z,101538.84
2022-08-29T10:47:02.440Z,101540.50
2022-08-29T10:49:28.896Z,101542.88
2022-08-29T10:52:18.877Z,101539.66
2022-08-29T10:54:51.947Z,101530.28
2022-08-29T10:57:42.704Z,101531.94
2022-08-29T11:00:15.627Z,101519.75
2022-08-29T11:03:06.910Z,101520.63
2022-08-29T11:05:44.199Z,101515.34
2022-08-29T11:08:27.422Z,101518.28
2022-08-29T11:10:54.240Z,101522.72
2022-08-29T11:13:56.287Z,101515.09
2022-08-29T11:16:27.509Z,101504.88
2022-08-29T11:19:13.113Z,101500.41
2022-08-29T11:22:02.880Z,101502.03
2022-08-29T11:24:35.066Z,101503.56
2022-08-29T11:27:13.129Z,101502.34
2022-08-29T11:29:50.928Z,101496.94
2022-08-29T11:32:23.241Z,101491.66
2022-08-29T11:35:08.739Z,101486.00
2022-08-29T11:37:53.702Z,101477.88
2022-08-29T11:43:48.847Z,101475.38
2022-08-29T11:46:17.008Z,101479.03
2022-08-29T11:48:47.736Z,101475.38
2022-08-29T11:51:29.494Z,101467.22
2022-08-29T11:53:57.039Z,101468.75
2022-08-29T11:56:28.899Z,101467.47
2022-08-29T11:58:57.903Z,101467.38
2022-08-29T12:01:24.349Z,101465.31
2022-08-29T12:04:00.983Z,101460.00
2022-08-29T12:06:42.848Z,101462.84
2022-08-29T12:09:13.882Z,101464.81
2022-08-29T12:11:58.938Z,101461.25
2022-08-29T12:14:37.940Z,101458.31
2022-08-29T12:17:51.380Z,101454.97
2022-08-29T12:21:03.039Z,101447.94
2022-08-29T12:23:36.842Z,101441.66
2022-08-29T12:26:22.913Z,101444.81
2022-08-29T12:29:01.805Z,101442.72
2022-08-29T12:32:18.187Z,101448.75
2022-08-29T12:34:59.355Z,101438.41
2022-08-29T12:37:39.947Z,101437.53
2022-08-29T12:40:06.968Z,101434.63
2022-08-29T12:42:57.405Z,101435.47
2022-08-29T12:45:28.126Z,101423.16
2022-08-29T12:47:58.847Z,101429.22
2022-08-29T12:50:34.434Z,101421.91
2022-08-29T12:53:05.940Z,101415.41
2022-08-29T12:55:40.487Z,101419.13
2022-08-29T12:58:08.425Z,101419.50
2022-08-29T13:00:35.896Z,101421.47
2022-08-29T13:03:18.155Z,101420.66
2022-08-29T13:05:45.826Z,101418.56
2022-08-29T13:08:33.478Z,101421.06
2022-08-29T13:11:05.378Z,101422.16
2022-08-29T13:13:32.174Z,101409.44
2022-08-29T13:16:01.444Z,101400.00
2022-08-29T13:18:30.091Z,101407.69
2022-08-29T13:21:18.499Z,101411.66
2022-08-29T13:23:46.726Z,101401.25
2022-08-29T13:26:16.192Z,101404.84
2022-08-29T13:28:47.327Z,101408.84
2022-08-29T13:31:14.164Z,101398.53
2022-08-29T13:33:49.751Z,101403.81
2022-08-29T13:36:37.425Z,101412.75
2022-08-29T13:39:17.079Z,101400.44
2022-08-29T13:41:47.078Z,101392.59
2022-08-29T13:44:19.806Z,101388.88
2022-08-29T13:46:47.632Z,101389.91
2022-08-29T13:49:25.392Z,101395.50
2022-08-29T13:51:52.312Z,101390.91
2022-08-29T13:54:19.107Z,101383.88
2022-08-29T13:56:56.172Z,101378.16
2022-08-29T13:59:25.922Z,101376.47
2022-08-29T14:02:10.489Z,101384.56
2022-08-29T14:04:39.851Z,101380.03
2022-08-29T14:07:13.729Z,101381.66
2022-08-29T14:09:44.377Z,101368.97
2022-08-29T14:12:12.537Z,101367.28
2022-08-29T14:14:39.039Z,101369.28
2022-08-29T14:17:05.659Z,101354.88
2022-08-29T14:19:32.877Z,101354.47
2022-08-29T14:22:00.546Z,101363.31
2022-08-29T14:24:30.514Z,101345.28
2022-08-29T14:27:01.521Z,101353.78
2022-08-29T14:29:33.160Z,101347.16
2022-08-29T14:32:02.763Z,101345.56
2022-08-29T14:34:32.791Z,101355.03
2022-08-29T14:37:01.301Z,101341.63
2022-08-29T14:39:28.267Z,101339.22
2022-08-29T14:41:55.035Z,101332.69
2022-08-29T14:44:22.216Z,101335.56
2022-08-29T14:46:49.883Z,101332.25
2022-08-29T14:49:16.462Z,101340.34
2022-08-29T14:51:44.476Z,101336.28
2022-08-29T14:54:11.630Z,101334.13
2022-08-29T14:56:55.008Z,101336.09
2022-08-29T14:59:22.524Z,101336.81
2022-08-29T15:01:54.309Z,101335.13
2022-08-29T15:04:36.146Z,101330.56
2022-08-29T15:07:11.815Z,101329.75
2022-08-29T15:09:39.047Z,101327.59
2022-08-29T15:12:06.004Z,101324.28
2022-08-29T15:14:34.445Z,101323.50
2022-08-29T15:17:01.186Z,101322.69
2022-08-29T15:22:14.298Z,101310.53
2022-08-29T15:24:40.844Z,101304.91
2022-08-29T15:27:08.050Z,101303.31
2022-08-29T15:29:37.212Z,101308.22
2022-08-29T15:32:05.076Z,101301.25
2022-08-29T15:34:32.045Z,101304.09
2022-08-29T15:36:59.231Z,101306.53
2022-08-29T15:39:29.926Z,101292.66
2022-08-29T15:41:57.856Z,101300.44
2022-08-29T15:44:25.269Z,101300.09
2022-08-29T15:46:52.038Z,101297.25
2022-08-29T15:49:21.183Z,101296.44
2022-08-29T15:51:49.466Z,101296.78
2022-08-29T15:54:16.357Z,101296.00
2022-08-29T15:56:43.276Z,101295.53
2022-08-29T15:59:12.470Z,101293.94
2022-08-29T16:01:44.967Z,101286.22
2022-08-29T16:04:12.917Z,101276.06
2022-08-29T16:06:39.796Z,101278.13
2022-08-29T16:09:15.174Z,101276.50
2022-08-29T16:11:44.609Z,101274.13
2022-08-29T16:16:58.651Z,101268.41
2022-08-29T16:19:25.152Z,101263.47
2022-08-29T16:21:51.758Z,101264.72
2022-08-29T16:24:21.611Z,101266.75
2022-08-29T16:26:48.169Z,101262.31
2022-08-29T16:29:14.729Z,101256.25
2022-08-29T16:31:46.194Z,101263.19
2022-08-29T16:34:13.171Z,101264.44
2022-08-29T16:36:39.707Z,101268.22
2022-08-29T16:39:06.760Z,101263.38
2022-08-29T16:41:33.289Z,101265.91
2022-08-29T16:43:59.926Z,101265.94
2022-08-29T16:46:30.817Z,101268.09
2022-08-29T16:48:57.978Z,101264.88
2022-08-29T16:51:27.636Z,101266.22
2022-08-29T16:53:54.313Z,101269.50
2022-08-29T16:56:21.062Z,101264.69
2022-08-29T16:59:01.651Z,101266.75
2022-08-29T17:01:43.384Z,101273.78
2022-08-29T17:04:15.562Z,101279.84
2022-08-29T17:06:43.339Z,101273.69
2022-08-29T17:09:09.877Z,101269.22
2022-08-29T17:11:37.814Z,101268.88
2022-08-29T17:14:06.267Z,101270.13
2022-08-29T17:16:32.814Z,101267.28
2022-08-29T17:18:59.941Z,101272.53
2022-08-29T17:21:27.194Z,101275.94
2022-08-29T17:23:55.332Z,101273.50
2022-08-29T17:26:23.009Z,101271.53
2022-08-29T17:28:49.787Z,101273.22
2022-08-29T17:31:17.226Z,101272.88
2022-08-29T17:33:44.243Z,101270.47
2022-08-29T17:36:11.424Z,101267.69
2022-08-29T17:38:45.085Z,101264.91
2022-08-29T17:41:18.244Z,101276.78
2022-08-29T17:43:47.366Z,101276.41
2022-08-29T17:46:15.449Z,101276.50
2022-08-29T17:48:42.505Z,101272.47
2022-08-29T17:51:09.545Z,101275.41
2022-08-29T17:53:36.532Z,101276.25
2022-08-29T17:56:24.733Z,101281.69
2022-08-29T17:58:51.149Z,101289.81
2022-08-29T18:01:17.736Z,101291.06
2022-08-29T18:03:45.425Z,101295.66
2022-08-29T18:06:14.821Z,101300.28
2022-08-29T18:08:47.754Z,101289.38
2022-08-29T18:11:16.323Z,101291.13
2022-08-29T18:13:43.362Z,101285.16
2022-08-29T18:16:10.742Z,101286.88
2022-08-29T18:18:38.832Z,101282.06
2022-08-29T18:21:05.601Z,101292.28
2022-08-29T18:23:32.556Z,101292.06
2022-08-29T18:25:59.352Z,101290.59
2022-08-29T18:28:26.085Z,101296.03
2022-08-29T18:30:52.865Z,101301.50
2022-08-29T18:33:19.570Z,101291.91
2022-08-29T18:35:46.508Z,101299.41
2022-08-29T18:38:13.392Z,101291.41
2022-08-29T18:40:40.352Z,101294.81
2022-08-29T18:43:09.876Z,101303.47
2022-08-29T18:45:37.866Z,101304.81
2022-08-29T18:48:05.297Z,101293.94
2022-08-29T18:50:34.649Z,101302.16
2022-08-29T18:53:04.147Z,101305.56
2022-08-29T18:55:30.749Z,101300.78
2022-08-29T18:57:57.330Z,101295.19
2022-08-29T19:00:25.140Z,101308.72
2022-08-29T19:02:53.413Z,101301.47
2022-08-29T19:05:20.976Z,101303.63
2022-08-29T19:07:47.524Z,101299.63
2022-08-29T19:10:14.068Z,101300.16
2022-08-29T19:12:40.637Z,101303.53
2022-08-29T19:15:08.521Z,101312.13
2022-08-29T19:17:35.213Z,101308.56
2022-08-29T19:20:20.544Z,101307.84
2022-08-29T19:22:47.126Z,101316.03
2022-08-29T19:25:13.662Z,101316.91
2022-08-29T19:27:43.540Z,101324.69
2022-08-29T19:30:13.373Z,101317.84
2022-08-29T19:32:40.288Z,101327.66
2022-08-29T19:35:07.780Z,101325.25
2022-08-29T19:37:34.350Z,101319.22
2022-08-29T19:40:01.714Z,101329.00
2022-08-29T19:42:28.309Z,101324.97
2022-08-29T19:44:55.255Z,101319.75
2022-08-29T19:47:23.430Z,101316.13
2022-08-29T19:49:50.818Z,101319.41
2022-08-29T19:52:17.536Z,101322.31
2022-08-29T19:54:44.270Z,101324.38
2022-08-29T19:57:13.324Z,101329.66
2022-08-29T19:59:41.582Z,101331.28
2022-08-29T20:02:09.365Z,101321.53
2022-08-29T20:04:36.402Z,101324.81
2022-08-29T20:07:03.509Z,101321.59
2022-08-29T20:09:30.276Z,101327.66
2022-08-29T20:11:57.195Z,101326.84
2022-08-29T20:14:23.858Z,101334.13
2022-08-29T20:16:52.290Z,101334.13
2022-08-29T20:19:21.237Z,101333.69
2022-08-29T20:21:49.138Z,101334.06
2022-08-29T20:24:16.605Z,101338.94
2022-08-29T20:26:45.163Z,101340.16
2022-08-29T20:29:12.209Z,101349.03
2022-08-29T20:31:39.571Z,101340.06
2022-08-29T20:34:06.484Z,101338.81
2022-08-29T20:36:51.855Z,101332.31
2022-08-29T20:39:21.088Z,101331.09
2022-08-29T20:41:57.656Z,101331.94
2022-08-29T20:44:32.986Z,101337.59
2022-08-29T20:47:00.543Z,101337.59
2022-08-29T20:49:27.511Z,101345.31
2022-08-29T20:51:54.086Z,101339.63
2022-08-29T20:54:25.907Z,101340.44
2022-08-29T20:56:53.292Z,101342.47
2022-08-29T20:59:22.601Z,101340.88
2022-08-29T21:01:52.039Z,101340.50
2022-08-29T21:04:37.273Z,101345.38
2022-08-29T21:07:09.365Z,101343.78
2022-08-29T21:09:41.208Z,101351.50
2022-08-29T21:12:08.285Z,101352.72
2022-08-29T21:14:34.862Z,101354.38
2022-08-29T21:17:02.732Z,101351.56
2022-08-29T21:19:29.987Z,101353.22
2022-08-29T21:22:02.007Z,101356.03
2022-08-29T21:24:29.456Z,101349.56
2022-08-29T21:26:56.766Z,101358.09
2022-08-29T21:29:23.596Z,101358.50
2022-08-29T21:31:52.206Z,101351.25
2022-08-29T21:34:18.909Z,101357.31
2022-08-29T21:36:45.413Z,101352.50
2022-08-29T21:39:13.277Z,101354.97
2022-08-29T21:41:51.569Z,101350.53
2022-08-29T21:44:20.103Z,101351.78
2022-08-29T21:46:46.655Z,101357.03
2022-08-29T21:49:17.379Z,101363.16
2022-08-29T21:51:45.406Z,101359.94
2022-08-29T21:54:13.892Z,101364.81
2022-08-29T21:56:40.914Z,101368.09
2022-08-29T21:59:07.774Z,101367.28
2022-08-29T22:01:40.304Z,101370.13
2022-08-29T22:04:09.767Z,101366.13
2022-08-29T22:06:39.809Z,101353.97
2022-08-29T22:09:13.834Z,101368.16
2022-08-29T22:11:43.440Z,101372.22
2022-08-29T22:14:11.665Z,101371.41
2022-08-29T22:16:39.119Z,101359.63
2022-08-29T22:19:14.961Z,101360.06
2022-08-29T22:21:46.308Z,101363.31
2022-08-29T22:24:15.063Z,101366.97
2022-08-29T22:26:43.535Z,101367.81
2022-08-29T22:29:11.942Z,101361.34
2022-08-29T22:31:39.097Z,101365.78
2022-08-29T22:34:09.655Z,101370.28
2022-08-29T22:36:36.136Z,101369.47
2022-08-29T22:39:02.817Z,101369.47
2022-08-29T22:41:29.315Z,101380.00
2022-08-29T22:44:25.453Z,101378.00
2022-08-29T22:46:44.455Z,101380.47
2022-08-29T22:49:11.101Z,101380.03
2022-08-29T22:51:37.612Z,101386.56
2022-08-29T22:54:22.690Z,101392.22
2022-08-29T22:56:49.212Z,101392.22
2022-08-29T22:59:16.888Z,101395.03
2022-08-29T23:01:44.666Z,101397.09
2022-08-29T23:04:12.539Z,101396.69
2022-08-29T23:06:39.273Z,101391.44
2022-08-29T23:09:06.467Z,101384.16
2022-08-29T23:11:33.594Z,101381.69
2022-08-29T23:14:00.659Z,101386.53
2022-08-29T23:16:29.121Z,101381.28
2022-08-29T23:18:55.695Z,101384.53
2022-08-29T23:21:25.106Z,101385.72
2022-08-29T23:23:51.850Z,101391.00
2022-08-29T23:26:20.068Z,101382.88
2022-08-29T23:28:47.449Z,101378.88
2022-08-29T23:31:15.653Z,101387.75
2022-08-29T23:33:42.539Z,101378.44
2022-08-29T23:36:09.592Z,101376.81
2022-08-29T23:38:37.075Z,101387.78
2022-08-29T23:41:04.275Z,101387.78
2022-08-29T23:43:31.716Z,101389.78
2022-08-29T23:46:04.675Z,101384.50
2022-08-29T23:48:31.698Z,101386.16
2022-08-29T23:50:58.293Z,101386.53
2022-08-29T23:53:25.191Z,101387.75
2022-08-29T23:55:52.099Z,101398.72
2022-08-29T23:58:18.705Z,101388.56
